createdAt,value
2018-12-15T00:00:57.976Z,20.77
2018-12-15T00:03:28.164Z,19.83
2018-12-15T00:05:58.563Z,19.47
2018-12-15T00:08:28.687Z,19.47
2018-12-15T00:10:58.852Z,18.57
2018-12-15T00:13:29.360Z,16.60
2018-12-15T00:15:59.642Z,19.93
2018-12-15T00:18:30.027Z,20.87
2018-12-15T00:21:00.278Z,19.53
2018-12-15T00:23:30.237Z,18.17
2018-12-15T00:26:00.403Z,19.47
2018-12-15T00:28:30.793Z,19.53
2018-12-15T00:31:00.784Z,19.90
2018-12-15T00:33:30.836Z,19.57
2018-12-15T00:36:01.199Z,18.97
2018-12-15T00:38:31.066Z,18.20
2018-12-15T00:41:01.165Z,19.00
2018-12-15T00:43:31.242Z,17.83
2018-12-15T00:46:01.395Z,18.97
2018-12-15T00:48:31.306Z,16.30
2018-12-15T00:51:01.270Z,18.57
2018-12-15T00:53:31.080Z,17.80
2018-12-15T00:56:01.089Z,17.30
2018-12-15T00:58:31.011Z,19.63
2018-12-15T01:01:00.854Z,16.00
2018-12-15T01:03:31.054Z,16.40
2018-12-15T01:06:00.922Z,15.90
2018-12-15T01:08:32.234Z,15.63
2018-12-15T01:11:02.202Z,13.70
2018-12-15T01:13:32.240Z,13.10
2018-12-15T01:16:02.426Z,15.57
2018-12-15T01:18:33.175Z,14.83
2018-12-15T01:21:03.151Z,14.30
2018-12-15T01:23:33.593Z,12.67
2018-12-15T01:26:03.663Z,11.83
2018-12-15T01:28:33.708Z,12.43
2018-12-15T01:31:03.925Z,13.63
2018-12-15T01:33:33.948Z,12.03
2018-12-15T01:36:03.759Z,12.70
2018-12-15T01:38:33.862Z,11.87
2018-12-15T01:41:04.042Z,11.17
2018-12-15T01:43:34.182Z,12.10
2018-12-15T01:46:04.822Z,12.80
2018-12-15T01:48:34.727Z,13.37
2018-12-15T01:51:04.468Z,12.40
2018-12-15T01:53:34.139Z,12.83
2018-12-15T01:56:03.788Z,14.37
2018-12-15T01:58:33.499Z,12.37
2018-12-15T02:01:03.146Z,11.27
2018-12-15T02:03:32.912Z,14.17
2018-12-15T02:06:02.551Z,14.30
2018-12-15T02:08:33.717Z,14.10
2018-12-15T02:11:03.456Z,14.40
2018-12-15T02:13:33.078Z,16.57
2018-12-15T02:16:02.728Z,14.23
2018-12-15T02:18:32.409Z,14.57
2018-12-15T02:21:02.100Z,16.20
2018-12-15T02:23:31.832Z,15.70
2018-12-15T02:26:01.462Z,17.80
2018-12-15T02:28:32.315Z,16.07
2018-12-15T02:31:01.942Z,14.83
2018-12-15T02:33:31.529Z,15.50
2018-12-15T02:36:01.266Z,15.90
2018-12-15T02:38:30.930Z,15.80
2018-12-15T02:41:00.882Z,15.40
2018-12-15T02:43:31.225Z,14.40
2018-12-15T02:46:00.906Z,18.20
2018-12-15T02:48:30.801Z,16.50
2018-12-15T02:51:00.426Z,18.03
2018-12-15T02:53:30.253Z,17.53
2018-12-15T02:55:59.906Z,18.93
2018-12-15T02:58:29.968Z,15.67
2018-12-15T03:01:00.726Z,15.83
2018-12-15T03:03:30.288Z,17.70
2018-12-15T03:06:00.209Z,16.93
2018-12-15T03:08:29.894Z,18.33
2018-12-15T03:10:59.489Z,19.40
2018-12-15T03:13:29.560Z,17.90
2018-12-15T03:15:59.329Z,20.20
2018-12-15T03:18:28.973Z,18.90
2018-12-15T03:21:03.678Z,18.57
2018-12-15T03:23:33.314Z,13.40
2018-12-15T03:26:03.160Z,16.20
2018-12-15T03:28:32.869Z,14.50
2018-12-15T03:31:02.391Z,15.20
2018-12-15T03:33:32.248Z,15.23
2018-12-15T03:36:02.256Z,14.63
2018-12-15T03:39:35.067Z,13.20
2018-12-15T03:42:04.692Z,13.87
2018-12-15T03:44:34.478Z,15.03
2018-12-15T03:47:04.052Z,16.37
2018-12-15T03:49:33.842Z,14.40
2018-12-15T03:52:03.517Z,16.17
2018-12-15T03:54:33.120Z,14.63
2018-12-15T03:57:02.747Z,16.70
2018-12-15T03:59:32.760Z,18.37
2018-12-15T04:02:02.517Z,15.17
2018-12-15T04:04:32.334Z,16.00
2018-12-15T04:07:02.199Z,15.90
2018-12-15T04:09:31.880Z,14.77
2018-12-15T04:12:01.522Z,12.67
2018-12-15T04:14:31.071Z,14.10
2018-12-15T04:17:00.867Z,14.20
2018-12-15T04:19:30.469Z,15.37
2018-12-15T04:22:10.651Z,13.77
2018-12-15T04:24:40.196Z,18.03
2018-12-15T04:27:09.978Z,16.87
2018-12-15T04:29:39.545Z,17.33
2018-12-15T04:32:09.304Z,15.67
2018-12-15T04:34:39.039Z,16.33
2018-12-15T04:37:08.697Z,16.47
2018-12-15T04:39:38.294Z,19.00
2018-12-15T04:42:09.239Z,16.27
2018-12-15T04:44:38.970Z,15.87
2018-12-15T04:47:08.845Z,13.07
2018-12-15T04:49:38.498Z,17.90
2018-12-15T04:52:08.110Z,17.07
2018-12-15T04:54:37.874Z,18.57
2018-12-15T04:57:07.549Z,17.07
2018-12-15T04:59:37.201Z,16.10
2018-12-15T05:02:06.852Z,17.60
2018-12-15T05:04:36.581Z,18.00
2018-12-15T05:07:06.236Z,16.13
2018-12-15T05:09:35.879Z,16.97
2018-12-15T05:12:06.893Z,17.40
2018-12-15T05:14:36.428Z,15.67
2018-12-15T05:17:06.073Z,17.07
2018-12-15T05:19:35.824Z,15.63
2018-12-15T05:22:05.927Z,16.73
2018-12-15T05:24:35.586Z,16.63
2018-12-15T05:27:06.518Z,17.43
2018-12-15T05:29:36.136Z,16.47
2018-12-15T05:32:05.946Z,17.67
2018-12-15T05:34:35.679Z,23.83
2018-12-15T05:37:05.337Z,18.33
2018-12-15T05:39:35.157Z,27.13
2018-12-15T05:42:04.972Z,24.73
2018-12-15T05:44:34.736Z,24.67
2018-12-15T05:47:04.462Z,24.70
2018-12-15T05:49:34.266Z,24.50
2018-12-15T05:52:03.954Z,23.17
2018-12-15T05:54:33.578Z,22.63
2018-12-15T05:57:03.252Z,24.30
2018-12-15T05:59:33.240Z,21.03
2018-12-15T06:02:04.239Z,22.37
2018-12-15T06:04:33.820Z,22.53
2018-12-15T06:07:03.582Z,22.53
2018-12-15T06:09:33.260Z,19.53
2018-12-15T06:12:03.076Z,17.40
2018-12-15T06:14:32.781Z,22.47
2018-12-15T06:17:02.531Z,25.47
2018-12-15T06:19:32.192Z,23.13
2018-12-15T06:22:02.336Z,22.20
2018-12-15T06:24:32.073Z,22.03
2018-12-15T06:27:02.545Z,18.83
2018-12-15T06:29:32.157Z,21.93
2018-12-15T06:32:01.791Z,17.70
2018-12-15T06:34:31.479Z,16.80
2018-12-15T06:37:01.212Z,17.40
2018-12-15T06:39:30.837Z,16.90
2018-12-15T06:42:00.428Z,17.93
2018-12-15T06:44:30.127Z,20.27
2018-12-15T06:46:59.922Z,18.03
2018-12-15T06:49:29.733Z,16.07
2018-12-15T06:51:59.411Z,20.07
2018-12-15T06:54:30.214Z,19.40
2018-12-15T06:56:59.798Z,18.93
2018-12-15T06:59:29.434Z,18.00
2018-12-15T07:01:59.267Z,17.43
2018-12-15T07:04:29.003Z,19.10
2018-12-15T07:06:58.926Z,18.80
2018-12-15T07:09:28.547Z,18.17
2018-12-15T07:11:59.197Z,20.17
2018-12-15T07:14:29.043Z,18.60
2018-12-15T07:16:59.123Z,17.43
2018-12-15T07:19:29.329Z,18.70
2018-12-15T07:21:59.023Z,18.27
2018-12-15T07:24:28.790Z,18.20
2018-12-15T07:26:58.726Z,17.00
2018-12-15T07:29:28.490Z,18.57
2018-12-15T07:31:58.569Z,18.10
2018-12-15T07:34:28.802Z,17.17
2018-12-15T07:36:58.551Z,19.10
2018-12-15T07:39:28.597Z,21.23
2018-12-15T07:41:58.472Z,19.67
2018-12-15T07:44:28.221Z,18.87
2018-12-15T07:46:57.864Z,18.40
2018-12-15T07:49:27.530Z,16.13
2018-12-15T07:51:57.416Z,17.17
2018-12-15T07:54:27.061Z,17.03
2018-12-15T07:56:58.079Z,20.20
2018-12-15T07:59:27.744Z,15.47
2018-12-15T08:01:57.678Z,18.77
2018-12-15T08:04:27.421Z,17.73
2018-12-15T08:06:57.093Z,15.27
2018-12-15T08:09:26.847Z,18.07
2018-12-15T08:12:01.763Z,19.90
2018-12-15T08:14:31.407Z,17.53
2018-12-15T08:17:01.056Z,16.97
2018-12-15T08:19:30.730Z,17.23
2018-12-15T08:22:00.610Z,14.83
2018-12-15T08:24:30.283Z,15.93
2018-12-15T08:26:59.863Z,15.07
2018-12-15T08:29:29.598Z,15.27
2018-12-15T08:31:59.118Z,13.03
2018-12-15T08:34:28.774Z,17.13
2018-12-15T08:36:58.507Z,14.40
2018-12-15T08:39:28.701Z,14.13
2018-12-15T08:41:58.286Z,14.20
2018-12-15T08:44:28.232Z,12.90
2018-12-15T08:46:58.257Z,14.30
2018-12-15T08:49:28.116Z,12.30
2018-12-15T08:51:58.031Z,12.60
2018-12-15T08:54:27.722Z,11.97
2018-12-15T08:56:57.827Z,12.27
2018-12-15T08:59:28.877Z,12.43
2018-12-15T09:01:59.074Z,11.53
2018-12-15T09:04:29.125Z,13.00
2018-12-15T09:06:59.335Z,14.30
2018-12-15T09:09:29.463Z,12.40
2018-12-15T09:11:59.502Z,11.43
2018-12-15T09:14:29.432Z,12.23
2018-12-15T09:16:59.510Z,14.10
2018-12-15T09:19:29.461Z,11.30
2018-12-15T09:21:59.468Z,11.43
2018-12-15T09:24:29.319Z,11.90
2018-12-15T09:26:59.833Z,14.13
2018-12-15T09:29:29.506Z,13.80
2018-12-15T09:32:00.239Z,12.10
2018-12-15T09:34:30.460Z,10.43
2018-12-15T09:37:00.542Z,12.13
2018-12-15T09:39:30.450Z,11.00
2018-12-15T09:42:00.267Z,10.57
2018-12-15T09:44:30.248Z,10.97
2018-12-15T09:46:59.833Z,11.37
2018-12-15T09:49:29.499Z,10.43
2018-12-15T09:51:59.110Z,10.83
2018-12-15T09:54:31.153Z,11.30
2018-12-15T09:57:00.965Z,10.20
2018-12-15T09:59:31.001Z,10.80
2018-12-15T10:02:01.244Z,9.60
2018-12-15T10:04:31.133Z,12.20
2018-12-15T10:07:01.369Z,11.87
2018-12-15T10:09:31.548Z,14.57
2018-12-15T10:12:02.066Z,12.60
2018-12-15T10:14:32.550Z,11.57
2018-12-15T10:17:02.444Z,14.13
2018-12-15T10:19:32.455Z,12.97
2018-12-15T10:22:03.044Z,12.80
2018-12-15T10:24:33.189Z,11.23
2018-12-15T10:27:03.556Z,11.43
2018-12-15T10:29:38.663Z,10.87
2018-12-15T10:32:13.458Z,13.33
2018-12-15T10:34:43.469Z,12.77
2018-12-15T10:37:13.391Z,14.40
2018-12-15T10:39:43.560Z,12.50
2018-12-15T10:42:13.553Z,11.77
2018-12-15T10:44:43.256Z,11.63
2018-12-15T10:47:13.315Z,12.20
2018-12-15T10:49:43.430Z,12.57
2018-12-15T10:52:13.100Z,13.43
2018-12-15T10:54:42.655Z,13.77
2018-12-15T10:57:12.536Z,13.77
2018-12-15T10:59:42.476Z,13.80
2018-12-15T11:02:12.193Z,13.90
2018-12-15T11:04:41.799Z,15.83
2018-12-15T11:07:11.703Z,18.10
2018-12-15T11:09:41.612Z,22.13
2018-12-15T11:12:11.325Z,19.53
2018-12-15T11:14:41.237Z,32.50
2018-12-15T11:17:11.053Z,29.53
2018-12-15T11:19:40.982Z,22.07
2018-12-15T11:22:10.642Z,26.30
2018-12-15T11:24:40.247Z,23.77
2018-12-15T11:27:10.024Z,24.10
2018-12-15T11:29:39.751Z,22.37
2018-12-15T11:32:09.374Z,22.10
2018-12-15T11:34:39.269Z,24.17
2018-12-15T11:37:08.749Z,22.90
2018-12-15T11:39:38.263Z,21.50
2018-12-15T11:42:08.053Z,21.70
2018-12-15T11:44:37.671Z,20.20
2018-12-15T11:47:07.399Z,21.10
2018-12-15T11:49:43.500Z,21.13
2018-12-15T11:52:08.829Z,22.07
2018-12-15T11:54:38.422Z,20.90
2018-12-15T11:57:08.006Z,20.70
2018-12-15T11:59:37.822Z,22.30
2018-12-15T12:02:10.066Z,20.37
2018-12-15T12:04:39.778Z,23.13
2018-12-15T12:07:10.458Z,22.70
2018-12-15T12:09:40.040Z,23.80
2018-12-15T12:12:09.593Z,23.97
2018-12-15T12:14:39.237Z,23.93
2018-12-15T12:17:08.779Z,22.20
2018-12-15T12:19:38.508Z,19.87
2018-12-15T12:22:08.128Z,23.47
2018-12-15T12:24:37.982Z,22.10
2018-12-15T12:27:07.583Z,20.80
2018-12-15T12:29:37.096Z,23.20
2018-12-15T12:32:06.715Z,29.13
2018-12-15T12:34:36.534Z,24.30
2018-12-15T12:37:06.333Z,25.33
2018-12-15T12:39:36.073Z,34.30
2018-12-15T12:42:05.770Z,33.90
2018-12-15T12:44:35.820Z,34.83
2018-12-15T12:47:05.511Z,25.03
2018-12-15T12:49:35.106Z,26.40
2018-12-15T12:52:05.726Z,29.97
2018-12-15T12:54:35.876Z,25.23
2018-12-15T12:57:07.486Z,28.53
2018-12-15T12:59:37.313Z,23.80
2018-12-15T13:02:06.962Z,29.10
2018-12-15T13:04:36.717Z,27.70
2018-12-15T13:07:06.394Z,25.30
2018-12-15T13:09:36.143Z,26.13
2018-12-15T13:12:05.852Z,28.83
2018-12-15T13:14:35.578Z,30.90
2018-12-15T13:17:05.906Z,28.27
2018-12-15T13:19:35.693Z,32.23
2018-12-15T13:22:06.309Z,34.43
2018-12-15T13:24:36.086Z,34.97
2018-12-15T13:27:06.873Z,33.60
2018-12-15T13:29:36.538Z,34.23
2018-12-15T13:32:06.190Z,30.60
2018-12-15T13:34:35.763Z,30.97
2018-12-15T13:37:05.647Z,29.57
2018-12-15T13:39:35.363Z,30.80
2018-12-15T13:42:05.171Z,29.40
2018-12-15T13:44:35.481Z,29.90
2018-12-15T13:47:05.517Z,24.27
2018-12-15T13:49:35.722Z,29.77
2018-12-15T13:52:05.414Z,28.90
2018-12-15T13:54:35.176Z,26.73
2018-12-15T13:57:04.805Z,30.03
2018-12-15T13:59:34.631Z,27.57
2018-12-15T14:02:04.814Z,25.07
2018-12-15T14:04:34.810Z,28.90
2018-12-15T14:07:04.557Z,29.90
2018-12-15T14:09:34.302Z,33.63
2018-12-15T14:12:06.410Z,37.40
2018-12-15T14:14:36.050Z,47.77
2018-12-15T14:17:07.844Z,43.93
2018-12-15T14:19:37.508Z,45.23
2018-12-15T14:22:07.332Z,42.40
2018-12-15T14:24:37.180Z,35.07
2018-12-15T14:27:06.863Z,31.83
2018-12-15T14:29:36.718Z,30.83
2018-12-15T14:32:06.769Z,30.93
2018-12-15T14:34:36.838Z,34.23
2018-12-15T14:37:07.119Z,32.20
2018-12-15T14:39:37.103Z,34.20
2018-12-15T14:42:06.859Z,42.53
2018-12-15T14:44:36.640Z,34.37
2018-12-15T14:47:06.471Z,40.40
2018-12-15T14:49:36.149Z,33.17
2018-12-15T14:52:05.806Z,36.60
2018-12-15T14:54:35.520Z,34.30
2018-12-15T14:57:05.330Z,34.53
2018-12-15T14:59:34.972Z,39.10
2018-12-15T15:02:04.733Z,44.23
2018-12-15T15:04:34.436Z,47.47
2018-12-15T15:07:04.775Z,45.13
2018-12-15T15:09:34.449Z,44.50
2018-12-15T15:12:04.176Z,40.50
2018-12-15T15:14:34.996Z,40.77
2018-12-15T15:17:04.918Z,48.13
2018-12-15T15:19:34.852Z,55.60
2018-12-15T15:22:04.618Z,51.60
2018-12-15T15:24:34.250Z,51.17
2018-12-15T15:27:04.775Z,53.23
2018-12-15T15:29:35.346Z,44.60
2018-12-15T15:32:05.414Z,47.90
2018-12-15T15:34:35.230Z,62.33
2018-12-15T15:37:04.970Z,58.47
2018-12-15T15:39:35.133Z,87.60
2018-12-15T15:42:05.478Z,85.10
2018-12-15T15:44:35.370Z,78.80
2018-12-15T15:47:05.175Z,80.60
2018-12-15T15:49:35.025Z,76.43
2018-12-15T15:52:06.310Z,72.97
2018-12-15T15:54:36.135Z,74.90
2018-12-15T15:57:06.944Z,102.90
2018-12-15T15:59:37.966Z,61.00
2018-12-15T16:02:08.662Z,54.23
2018-12-15T16:04:38.321Z,45.97
2018-12-15T16:07:08.871Z,47.97
2018-12-15T16:09:44.774Z,53.03
2018-12-15T16:12:10.986Z,52.73
2018-12-15T16:14:40.846Z,65.47
2018-12-15T16:17:10.505Z,52.97
2018-12-15T16:19:40.188Z,55.10
2018-12-15T16:22:09.985Z,61.00
2018-12-15T16:24:41.623Z,43.73
2018-12-15T16:27:11.361Z,50.63
2018-12-15T16:29:42.648Z,59.03
2018-12-15T16:32:12.430Z,51.73
2018-12-15T16:34:43.735Z,54.10
2018-12-15T16:37:13.709Z,48.40
2018-12-15T16:39:44.498Z,57.93
2018-12-15T16:42:14.379Z,47.90
2018-12-15T16:44:44.112Z,45.50
2018-12-15T16:47:13.837Z,43.17
2018-12-15T16:49:43.598Z,48.57
2018-12-15T16:52:13.422Z,62.13
2018-12-15T16:54:43.435Z,51.00
2018-12-15T16:57:13.290Z,43.77
2018-12-15T16:59:42.995Z,45.80
2018-12-15T17:02:12.651Z,43.33
2018-12-15T17:04:43.374Z,36.57
2018-12-15T17:07:13.172Z,38.03
2018-12-15T17:09:42.874Z,38.00
2018-12-15T17:12:13.874Z,37.70
2018-12-15T17:14:43.599Z,41.67
2018-12-15T17:17:13.359Z,45.63
2018-12-15T17:19:43.089Z,46.33
2018-12-15T17:22:12.875Z,49.30
2018-12-15T17:24:42.618Z,48.67
2018-12-15T17:27:18.633Z,45.70
2018-12-15T17:29:48.264Z,46.33
2018-12-15T17:32:18.062Z,45.70
2018-12-15T17:34:47.767Z,44.77
2018-12-15T17:37:17.519Z,48.30
2018-12-15T17:39:47.403Z,46.57
2018-12-15T17:42:17.399Z,50.07
2018-12-15T17:44:49.096Z,51.40
2018-12-15T17:47:18.841Z,49.20
2018-12-15T17:55:15.746Z,52.87
2018-12-15T17:57:45.238Z,59.23
2018-12-15T18:00:16.198Z,47.97
2018-12-15T18:02:45.915Z,44.10
2018-12-15T18:05:15.607Z,43.87
2018-12-15T18:07:47.002Z,42.43
2018-12-15T18:10:18.330Z,42.83
2018-12-15T18:12:48.011Z,53.50
2018-12-15T18:15:17.544Z,60.53
2018-12-15T18:17:47.209Z,46.33
2018-12-15T18:20:17.042Z,52.80
2018-12-15T18:22:46.662Z,55.80
2018-12-15T18:25:16.272Z,62.50
2018-12-15T18:27:45.873Z,61.10
2018-12-15T18:30:15.759Z,54.53
2018-12-15T18:32:46.434Z,63.10
2018-12-15T18:35:17.552Z,50.00
2018-12-15T18:37:47.114Z,49.17
2018-12-15T18:40:16.795Z,61.87
2018-12-15T18:42:46.426Z,54.53
2018-12-15T18:45:16.270Z,61.20
2018-12-15T18:47:46.971Z,55.47
2018-12-15T18:50:17.749Z,47.83
2018-12-15T18:52:47.343Z,70.63
2018-12-15T18:55:17.205Z,57.07
2018-12-15T18:57:46.777Z,54.63
2018-12-15T19:00:17.664Z,54.13
2018-12-15T19:02:47.325Z,61.17
2018-12-15T19:05:17.054Z,57.47
2018-12-15T19:07:46.818Z,55.83
2018-12-15T19:10:16.636Z,59.20
2018-12-15T19:12:46.407Z,67.40
2018-12-15T19:15:16.027Z,72.50
2018-12-15T19:17:45.625Z,56.00
2018-12-15T19:20:27.213Z,58.37
2018-12-15T19:22:57.682Z,45.87
2018-12-15T19:25:27.322Z,39.10
2018-12-15T19:27:57.493Z,62.73
2018-12-15T19:30:27.183Z,52.47
2018-12-15T19:32:57.950Z,58.27
2018-12-15T19:35:29.043Z,45.50
2018-12-15T19:37:58.941Z,61.60
2018-12-15T19:40:28.493Z,62.80
2018-12-15T19:42:58.270Z,68.93
2018-12-15T19:45:27.903Z,59.77
2018-12-15T19:47:58.376Z,50.27
2018-12-15T19:50:28.088Z,51.97
2018-12-15T19:52:57.867Z,56.93
2018-12-15T19:55:27.394Z,51.77
2018-12-15T19:57:57.160Z,53.57
2018-12-15T20:00:27.063Z,48.23
2018-12-15T20:02:56.642Z,47.10
2018-12-15T20:05:26.365Z,44.33
2018-12-15T20:07:56.054Z,45.83
2018-12-15T20:10:26.002Z,45.17
2018-12-15T20:12:55.517Z,42.40
2018-12-15T20:15:27.414Z,45.83
2018-12-15T20:17:57.310Z,51.40
2018-12-15T20:20:27.033Z,41.50
2018-12-15T20:22:57.912Z,46.07
2018-12-15T20:25:27.880Z,46.47
2018-12-15T20:27:57.704Z,43.63
2018-12-15T20:30:27.502Z,37.00
2018-12-15T20:32:57.105Z,50.43
2018-12-15T20:35:27.052Z,49.33
2018-12-15T20:37:56.835Z,47.70
2018-12-15T20:40:26.559Z,50.13
2018-12-15T20:42:56.202Z,60.10
2018-12-15T20:45:27.229Z,40.37
2018-12-15T20:47:56.932Z,35.90
2018-12-15T20:50:26.855Z,33.80
2018-12-15T20:52:56.728Z,37.27
2018-12-15T20:55:26.680Z,36.63
2018-12-15T20:57:57.388Z,36.17
2018-12-15T21:00:27.092Z,33.73
2018-12-15T21:02:58.898Z,54.10
2018-12-15T21:05:28.824Z,52.80
2018-12-15T21:07:58.468Z,47.90
2018-12-15T21:10:28.432Z,70.77
2018-12-15T21:12:58.165Z,50.40
2018-12-15T21:15:32.694Z,52.77
2018-12-15T21:18:02.956Z,45.40
2018-12-15T21:20:33.246Z,46.17
2018-12-15T21:23:02.994Z,56.80
2018-12-15T21:25:32.551Z,51.57
2018-12-15T21:28:02.171Z,46.00
2018-12-15T21:30:31.762Z,50.30
2018-12-15T21:33:01.755Z,54.43
2018-12-15T21:35:31.505Z,46.73
2018-12-15T21:38:01.914Z,40.90
2018-12-15T21:40:32.716Z,44.47
2018-12-15T21:43:02.368Z,40.60
2018-12-15T21:45:32.047Z,32.07
2018-12-15T21:48:02.727Z,32.80
2018-12-15T21:50:32.761Z,30.90
2018-12-15T21:53:02.351Z,33.03
2018-12-15T21:55:32.062Z,30.37
2018-12-15T21:58:03.006Z,32.40
2018-12-15T22:00:33.844Z,32.87
2018-12-15T22:03:04.280Z,31.20
2018-12-15T22:05:34.275Z,32.93
2018-12-15T22:08:03.991Z,31.90
2018-12-15T22:17:21.495Z,33.17
2018-12-15T22:19:52.390Z,32.13
2018-12-15T22:22:22.086Z,33.53
2018-12-15T22:24:52.119Z,35.03
2018-12-15T22:27:23.285Z,35.00
2018-12-15T22:29:53.297Z,34.07
2018-12-15T22:32:23.132Z,35.20
2018-12-15T22:34:52.907Z,36.23
2018-12-15T22:37:22.517Z,37.40
2018-12-15T22:39:53.146Z,35.50
2018-12-15T22:42:22.965Z,36.97
2018-12-15T22:44:52.582Z,35.93
2018-12-15T22:47:22.408Z,37.87
2018-12-15T22:49:52.143Z,38.43
2018-12-15T22:52:21.813Z,36.27
2018-12-15T22:54:52.005Z,39.07
2018-12-15T22:57:21.864Z,39.53
2018-12-15T22:59:52.273Z,36.40
2018-12-15T23:02:21.967Z,34.43
2018-12-15T23:04:51.827Z,39.90
2018-12-15T23:07:22.732Z,37.70
2018-12-15T23:09:52.431Z,39.30
2018-12-15T23:12:22.129Z,40.10
2018-12-15T23:14:51.901Z,43.17
2018-12-15T23:17:22.526Z,37.20
2018-12-15T23:19:52.245Z,38.80
2018-12-15T23:22:21.846Z,40.70
2018-12-15T23:24:51.683Z,41.40
2018-12-15T23:27:21.475Z,40.73
2018-12-15T23:29:51.159Z,37.63
2018-12-15T23:32:20.948Z,40.90
2018-12-15T23:34:50.688Z,37.73
2018-12-15T23:37:20.358Z,36.83
2018-12-15T23:39:50.323Z,36.10
2018-12-15T23:42:20.640Z,33.53
2018-12-15T23:44:50.719Z,37.10
2018-12-15T23:47:20.297Z,36.43
2018-12-15T23:49:50.167Z,35.40
2018-12-15T23:52:23.225Z,33.17
2018-12-15T23:54:52.319Z,32.03
2018-12-15T23:57:22.082Z,35.90
2018-12-15T23:59:53.068Z,36.40
